| Pilot: | GLD1760 Luciano A. | Aircraft: | Piper | Distance: | 238NM |
| From: | SSTB | To: | SSPI | Duration: | 2.51 |
| Validation: | Valid | Tipo: | Charter | Tail Number: | PT-GLD |
| ZFW: | 1530 | Block Fuel/Init FOB | 105flight_details.php/47 | Flight Fuel | 105 |
| Passengers: | 0 | Cargo: | 10 | Alternate: | SBLO |
| Departure Time: | 1446 | Cruise Speed: | 120 | Flight Level: | A650 |
| Flight Type: | VFR | Aircraft Type: | P28A | Weight Unit: | Kg |
| Date: | 25/04/2026 | Comments: | GOLD ACARS | Network: | VATSIM |
| Crash: | No | Validator Comments: | Rating | 127.281 |
| ROUTE | DCT 2528S05039W 2431S05139W 2400S05221W 2341S05238W DCT |
| REMARKS | PER/A OPR/GOLD VIRTUAL AIRLINES PER/A RMK/FROM SSTB/PIC GLD1760/EM TREINAMENTO VFR/ RMK/VATCAREER |
| Crash | OK | Beacon Lights off with engine on | OK | Speed above 250KIAS below 10.000ft | OK |
| Landing Lights OFF below 10.000ft | OK | Landing Lights ON above 10.000ft | OK | Stall | OK |
| Overspeed | OK | Pause | OK | Refuel | OK |
| Slew | OK | Taxi Lights OFF during taxi | OK | Land Lights OFF during take off | OK |
| Landing Lights OFF during landing | OK | Landed in not planned airfield | OK | Taxi speed above 25 kt | OK |
| Incorrect QNH during take off | OK | Incorrect QNH during landing | OK |
| Wind: | 269º/3 kt | Heading: | 288 |
| VS: | -96 ft/min | IAS: | 56 kt |
| Gforce: | 1.0048 G | Bank: | -1.29 |
| Pitch | 0.94 | Flaps | 100 |
| Nav Lights | OFF | Landing Lights | ON |
| Beacon Lights | ON | Strobe Lights | ON |
| DATE | EVENT | IAS | ALTITUDE |
|---|---|---|---|
| 2026-04-25 14:46:30 | GOLD ACARS VERSION 3.3.6.9 | 0 | 0 |
| 2026-04-25 14:46:30 | BOARDING | 2 | 2604 |
| 2026-04-25 14:50:18 | FLAP 33% | 2 | 2604 |
| 2026-04-25 14:50:19 | FLAP 66% | 2 | 2604 |
| 2026-04-25 14:50:20 | FLAP 100% | 2 | 2604 |
| 2026-04-25 14:50:25 | FLAP 66% | 2 | 2604 |
| 2026-04-25 14:50:25 | FLAP 33% | 2 | 2604 |
| 2026-04-25 14:50:26 | FLAP 0% | 2 | 2604 |
| 2026-04-25 14:51:47 | STB LIGHTS ON | 2 | 2604 |
| 2026-04-25 14:52:57 | STARTING ENGINE 1 | 2 | 2604 |
| 2026-04-25 14:57:46 | FLAP 33% | 2 | 2552 |
| 2026-04-25 14:58:14 | TAXI TO THE RWY | 4 | 2552 |
| 2026-04-25 14:59:24 | NAV LIGHTS ON | 0 | 2552 |
| 2026-04-25 14:59:25 | NAV LIGHTS OFF | 0 | 2552 |
| 2026-04-25 14:59:26 | NAV LIGHTS ON | 0 | 2552 |
| 2026-04-25 14:59:27 | NAV LIGHTS OFF | 0 | 2552 |
| 2026-04-25 15:01:41 | LND LIGHTS ON | 10 | 2553 |
| 2026-04-25 15:05:11 | CLIMBING | 67 | 2578 |
| 2026-04-25 15:05:44 | AP ENGAGED | 66 | 2940 |
| 2026-04-25 15:05:47 | AP DISENGAGED | 64 | 2981 |
| 2026-04-25 15:05:51 | AP ENGAGED | 65 | 3032 |
| 2026-04-25 15:05:52 | CRUISE | 66 | 3034 |
| 2026-04-25 15:05:54 | LANDING | 72 | 3032 |
| 2026-04-25 15:06:00 | CLIMBING | 78 | 3016 |
| 2026-04-25 15:06:07 | CRUISE | 81 | 3075 |
| 2026-04-25 15:06:09 | CLIMBING | 81 | 3091 |
| 2026-04-25 15:06:13 | CRUISE | 82 | 3121 |
| 2026-04-25 15:06:15 | AP DISENGAGED | 84 | 3123 |
| 2026-04-25 15:06:20 | CLIMBING | 88 | 3124 |
| 2026-04-25 15:06:31 | AP ENGAGED | 82 | 3293 |
| 2026-04-25 15:06:34 | CRUISE | 83 | 3306 |
| 2026-04-25 15:06:48 | CLIMBING | 90 | 3337 |
| 2026-04-25 15:06:56 | CRUISE | 88 | 3417 |
| 2026-04-25 15:07:04 | CLIMBING | 90 | 3451 |
| 2026-04-25 15:07:20 | CRUISE | 86 | 3632 |
| 2026-04-25 15:07:30 | CLIMBING | 87 | 3688 |
| 2026-04-25 15:07:43 | CRUISE | 86 | 3789 |
| 2026-04-25 15:08:47 | AP DISENGAGED | 87 | 4176 |
| 2026-04-25 15:08:51 | AP ENGAGED | 87 | 4205 |
| 2026-04-25 15:09:36 | CLIMBING | 85 | 4530 |
| 2026-04-25 15:10:25 | CRUISE | 84 | 4881 |
| 2026-04-25 15:12:35 | CLIMBING | 83 | 5625 |
| 2026-04-25 15:13:50 | CRUISE | 82 | 6164 |
| 2026-04-25 15:15:51 | DESCEND | 89 | 6638 |
| 2026-04-25 15:18:26 | AP DISENGAGED | 93 | 6316 |
| 2026-04-25 15:18:26 | AP ENGAGED | 93 | 6314 |
| 2026-04-25 15:19:31 | AP DISENGAGED | 93 | 6243 |
| 2026-04-25 15:19:32 | AP ENGAGED | 93 | 6241 |
| 2026-04-25 15:32:33 | AP DISENGAGED | 87 | 6465 |
| 2026-04-25 15:32:40 | AP ENGAGED | 89 | 6449 |
| 2026-04-25 15:38:01 | FLAP 0% | 88 | 6520 |
| 2026-04-25 15:38:07 | CLIMBING | 88 | 6548 |
| 2026-04-25 15:38:16 | CRUISE | 87 | 6631 |
| 2026-04-25 15:39:31 | DESCEND | 104 | 6644 |
| 2026-04-25 16:52:00 | AP DISENGAGED | 110 | 2724 |
| 2026-04-25 16:53:48 | CLIMBING | 85 | 2223 |
| 2026-04-25 16:54:09 | CRUISE | 88 | 2504 |
| 2026-04-25 16:54:23 | AP ENGAGED | 98 | 2574 |
| 2026-04-25 16:54:34 | CLIMBING | 104 | 2624 |
| 2026-04-25 16:55:18 | CRUISE | 100 | 3091 |
| 2026-04-25 16:55:24 | CLIMBING | 104 | 3103 |
| 2026-04-25 16:55:32 | CRUISE | 105 | 3170 |
| 2026-04-25 16:55:40 | CLIMBING | 105 | 3207 |
| 2026-04-25 16:56:54 | CRUISE | 99 | 4017 |
| 2026-04-25 17:08:26 | LANDING | 122 | 2706 |
| 2026-04-25 17:10:59 | AP DISENGAGED | 108 | 2506 |
| 2026-04-25 17:11:52 | CLIMBING | 101 | 2339 |
| 2026-04-25 17:12:09 | CRUISE | 87 | 2477 |
| 2026-04-25 17:12:11 | FLAP 33% | 89 | 2483 |
| 2026-04-25 17:12:53 | LANDING | 83 | 2404 |
| 2026-04-25 17:13:16 | CLIMBING | 75 | 2405 |
| 2026-04-25 17:13:18 | CRUISE | 75 | 2421 |
| 2026-04-25 17:13:24 | LANDING | 79 | 2409 |
| 2026-04-25 17:13:40 | FLAP 66% | 85 | 2360 |
| 2026-04-25 17:14:12 | FLAP 100% | 81 | 2228 |
| 2026-04-25 17:15:07 | LANDED AIRPORT [SSPI] | 57 | 1571 |
| 2026-04-25 17:15:07 | LANDED - VS: -96 ft/min | 56 | 1570 |
| 2026-04-25 17:15:14 | FLAP 33% | 47 | 1563 |
| 2026-04-25 17:15:14 | FLAP 0% | 47 | 1562 |
| 2026-04-25 17:15:19 | TAXI TO THE GATE | 29 | 1559 |
| 2026-04-25 17:15:36 | AT THE GATE | 0 | 1557 |
| 2026-04-25 17:15:48 | LND LIGHTS OFF | 0 | 1557 |
| 2026-04-25 17:16:16 | FLAP 33% | 6 | 1558 |
| 2026-04-25 17:17:03 | STOPPING ENGINE 1 | 0 | 1559 |
| 2026-04-25 17:17:11 | FLAP 0% | 0 | 1559 |
| 2026-04-25 17:17:18 | STB LIGHTS OFF | 0 | 1559 |
| 2026-04-25 17:17:18 | FLIGHT FINISHED | 0 | 1559 |
| DATE | IAS | GS | ALTITUDE | FUEL USED | OAT | Flight Phase |
|---|---|---|---|---|---|---|
| 2026-04-25 14:48:30 | 2 | 0 | 2604 | 0 | 9 | BOARDING |
| 2026-04-25 14:49:30 | 2 | 0 | 2604 | 0 | 9 | BOARDING |
| 2026-04-25 14:50:31 | 2 | 0 | 2604 | 0 | 9 | BOARDING |
| 2026-04-25 14:51:31 | 2 | 0 | 2604 | 0 | 9 | BOARDING |
| 2026-04-25 14:52:31 | 2 | 0 | 2604 | 0 | 9 | BOARDING |
| 2026-04-25 14:53:31 | 2 | 0 | 2604 | 0 | 9 | BOARDING |
| 2026-04-25 14:54:31 | 2 | 0 | 2604 | 0 | 9 | BOARDING |
| 2026-04-25 14:55:32 | 2 | 0 | 2552 | 0 | 9 | BOARDING |
| 2026-04-25 14:56:32 | 2 | 0 | 2552 | 0 | 9 | BOARDING |
| 2026-04-25 14:57:32 | 2 | 0 | 2552 | 0 | 9 | BOARDING |
| 2026-04-25 14:58:32 | 0 | 0 | 2552 | 0 | 15 | BOARDING |
| 2026-04-25 14:59:32 | 2 | 5 | 2552 | 0 | 15 | TAXI TO THE RWY |
| 2026-04-25 15:00:33 | 0 | 0 | 2552 | 0 | 15 | TAXI TO THE RWY |
| 2026-04-25 15:01:33 | 7 | 7 | 2553 | 0 | 15 | TAXI TO THE RWY |
| 2026-04-25 15:02:33 | 11 | 10 | 2559 | 1 | 15 | TAXI TO THE RWY |
| 2026-04-25 15:03:33 | 16 | 16 | 2567 | 1 | 15 | TAXI TO THE RWY |
| 2026-04-25 15:04:33 | 4 | 5 | 2577 | 1 | 14 | TAXI TO THE RWY |
| 2026-04-25 15:05:34 | 69 | 72 | 2803 | 1 | 14 | TAXI TO THE RWY |
| 2026-04-25 15:06:34 | 84 | 88 | 3306 | 2 | 13 | CLIMBING |
| 2026-04-25 15:07:34 | 87 | 90 | 3723 | 2 | 12 | CRUISE |
| 2026-04-25 15:08:34 | 87 | 92 | 4095 | 3 | 11 | CLIMBING |
| 2026-04-25 15:09:34 | 86 | 91 | 4515 | 3 | 11 | CRUISE |
| 2026-04-25 15:10:35 | 85 | 91 | 4926 | 4 | 10 | CRUISE |
| 2026-04-25 15:11:35 | 85 | 91 | 5283 | 4 | 9 | CRUISE |
| 2026-04-25 15:12:35 | 84 | 90 | 5625 | 5 | 8 | CRUISE |
| 2026-04-25 15:13:35 | 83 | 90 | 6080 | 5 | 8 | CLIMBING |
| 2026-04-25 15:14:35 | 82 | 89 | 6399 | 5 | 7 | CLIMBING |
| 2026-04-25 15:15:36 | 82 | 89 | 6685 | 6 | 6 | CRUISE |
| 2026-04-25 15:16:36 | 91 | 98 | 6463 | 6 | 7 | CRUISE |
| 2026-04-25 15:17:36 | 93 | 101 | 6396 | 7 | 7 | DESCEND |
| 2026-04-25 15:18:37 | 94 | 100 | 6298 | 7 | 7 | DESCEND |
| 2026-04-25 15:19:37 | 93 | 101 | 6234 | 8 | 7 | DESCEND |
| 2026-04-25 15:20:37 | 89 | 97 | 6350 | 8 | 7 | DESCEND |
| 2026-04-25 15:21:37 | 86 | 95 | 6516 | 8 | 7 | DESCEND |
| 2026-04-25 15:22:38 | 89 | 97 | 6570 | 9 | 7 | DESCEND |
| 2026-04-25 15:23:38 | 88 | 96 | 6567 | 9 | 7 | DESCEND |
| 2026-04-25 15:24:38 | 89 | 97 | 6574 | 10 | 7 | DESCEND |
| 2026-04-25 15:25:38 | 89 | 97 | 6528 | 10 | 7 | DESCEND |
| 2026-04-25 15:26:38 | 91 | 99 | 6502 | 11 | 7 | DESCEND |
| 2026-04-25 15:27:39 | 89 | 98 | 6559 | 11 | 7 | DESCEND |
| 2026-04-25 15:28:39 | 92 | 101 | 6612 | 11 | 7 | DESCEND |
| 2026-04-25 15:29:39 | 93 | 102 | 6453 | 12 | 7 | DESCEND |
| 2026-04-25 15:30:39 | 91 | 99 | 6423 | 12 | 8 | DESCEND |
| 2026-04-25 15:31:40 | 88 | 97 | 6448 | 13 | 7 | DESCEND |
| 2026-04-25 15:32:40 | 89 | 97 | 6452 | 13 | 7 | DESCEND |
| 2026-04-25 15:33:40 | 89 | 95 | 6440 | 14 | 7 | DESCEND |
| 2026-04-25 15:34:40 | 89 | 95 | 6457 | 14 | 8 | DESCEND |
| 2026-04-25 15:35:40 | 89 | 95 | 6479 | 14 | 8 | DESCEND |
| 2026-04-25 15:36:40 | 89 | 95 | 6481 | 15 | 8 | DESCEND |
| 2026-04-25 15:37:41 | 89 | 96 | 6524 | 15 | 7 | DESCEND |
| 2026-04-25 15:38:41 | 97 | 104 | 6645 | 16 | 7 | DESCEND |
| 2026-04-25 15:39:41 | 107 | 115 | 6605 | 16 | 7 | CRUISE |
| 2026-04-25 15:40:42 | 107 | 116 | 6531 | 16 | 7 | DESCEND |
| 2026-04-25 15:41:42 | 106 | 115 | 6491 | 17 | 8 | DESCEND |
| 2026-04-25 15:42:42 | 106 | 115 | 6514 | 17 | 7 | DESCEND |
| 2026-04-25 15:43:42 | 106 | 115 | 6496 | 18 | 7 | DESCEND |
| 2026-04-25 15:44:43 | 105 | 113 | 6544 | 18 | 7 | DESCEND |
| 2026-04-25 15:45:43 | 106 | 114 | 6520 | 19 | 7 | DESCEND |
| 2026-04-25 15:46:43 | 107 | 115 | 6514 | 19 | 6 | DESCEND |
| 2026-04-25 15:47:43 | 107 | 115 | 6468 | 19 | 7 | DESCEND |
| 2026-04-25 15:48:43 | 107 | 115 | 6423 | 20 | 7 | DESCEND |
| 2026-04-25 15:49:44 | 102 | 110 | 6477 | 20 | 6 | DESCEND |
| 2026-04-25 15:50:44 | 103 | 111 | 6562 | 21 | 6 | DESCEND |
| 2026-04-25 15:51:44 | 105 | 113 | 6596 | 21 | 7 | DESCEND |
| 2026-04-25 15:52:44 | 105 | 114 | 6606 | 22 | 6 | DESCEND |
| 2026-04-25 15:53:44 | 110 | 118 | 6578 | 22 | 6 | DESCEND |
| 2026-04-25 15:54:44 | 108 | 116 | 6554 | 23 | 6 | DESCEND |
| 2026-04-25 15:55:45 | 109 | 117 | 6475 | 23 | 5 | DESCEND |
| 2026-04-25 15:56:45 | 109 | 117 | 6416 | 23 | 6 | DESCEND |
| 2026-04-25 15:57:45 | 107 | 115 | 6405 | 24 | 7 | DESCEND |
| 2026-04-25 15:58:45 | 103 | 111 | 6479 | 24 | 7 | DESCEND |
| 2026-04-25 15:59:46 | 105 | 113 | 6556 | 25 | 5 | DESCEND |
| 2026-04-25 16:00:46 | 107 | 115 | 6552 | 25 | 5 | DESCEND |
| 2026-04-25 16:01:46 | 106 | 115 | 6584 | 26 | 5 | DESCEND |
| 2026-04-25 16:02:47 | 105 | 113 | 6607 | 26 | 5 | DESCEND |
| 2026-04-25 16:03:47 | 106 | 114 | 6607 | 26 | 5 | DESCEND |
| 2026-04-25 16:04:47 | 106 | 114 | 6587 | 27 | 5 | DESCEND |
| 2026-04-25 16:05:49 | 108 | 117 | 6628 | 27 | 5 | DESCEND |
| 2026-04-25 16:06:50 | 109 | 118 | 6633 | 28 | 5 | DESCEND |
| 2026-04-25 16:07:50 | 110 | 118 | 6537 | 28 | 5 | DESCEND |
| 2026-04-25 16:08:50 | 110 | 118 | 6397 | 29 | 7 | DESCEND |
| 2026-04-25 16:09:50 | 106 | 113 | 6395 | 29 | 5 | DESCEND |
| 2026-04-25 16:10:50 | 105 | 112 | 6484 | 30 | 5 | DESCEND |
| 2026-04-25 16:11:51 | 105 | 112 | 6556 | 30 | 5 | DESCEND |
| 2026-04-25 16:12:51 | 106 | 114 | 6550 | 30 | 6 | DESCEND |
| 2026-04-25 16:13:51 | 105 | 113 | 6525 | 31 | 7 | DESCEND |
| 2026-04-25 16:14:52 | 105 | 113 | 6529 | 31 | 7 | DESCEND |
| 2026-04-25 16:15:52 | 105 | 114 | 6514 | 32 | 7 | DESCEND |
| 2026-04-25 16:16:53 | 105 | 113 | 6550 | 32 | 7 | DESCEND |
| 2026-04-25 16:17:53 | 105 | 113 | 6572 | 33 | 7 | DESCEND |
| 2026-04-25 16:18:53 | 105 | 112 | 6579 | 33 | 7 | DESCEND |
| 2026-04-25 16:19:53 | 107 | 114 | 6582 | 33 | 7 | DESCEND |
| 2026-04-25 16:20:53 | 106 | 114 | 6604 | 34 | 6 | DESCEND |
| 2026-04-25 16:21:54 | 106 | 114 | 6573 | 34 | 6 | DESCEND |
| 2026-04-25 16:22:54 | 105 | 113 | 6558 | 35 | 6 | DESCEND |
| 2026-04-25 16:23:54 | 105 | 113 | 6597 | 35 | 6 | DESCEND |
| 2026-04-25 16:24:54 | 104 | 112 | 6605 | 36 | 5 | DESCEND |
| 2026-04-25 16:25:54 | 104 | 111 | 6684 | 36 | 4 | DESCEND |
| 2026-04-25 16:26:54 | 104 | 111 | 6758 | 37 | 4 | DESCEND |
| 2026-04-25 16:27:55 | 104 | 112 | 6776 | 37 | 4 | DESCEND |
| 2026-04-25 16:28:55 | 104 | 112 | 6815 | 37 | 4 | DESCEND |
| 2026-04-25 16:29:55 | 110 | 118 | 6580 | 38 | 4 | DESCEND |
| 2026-04-25 16:30:55 | 109 | 116 | 6489 | 38 | 4 | DESCEND |
| 2026-04-25 16:31:55 | 109 | 117 | 6417 | 39 | 5 | DESCEND |
| 2026-04-25 16:32:56 | 108 | 116 | 6375 | 39 | 6 | DESCEND |
| 2026-04-25 16:33:56 | 108 | 115 | 6377 | 40 | 6 | DESCEND |
| 2026-04-25 16:34:56 | 108 | 115 | 6398 | 40 | 6 | DESCEND |
| 2026-04-25 16:35:56 | 108 | 115 | 6402 | 41 | 6 | DESCEND |
| 2026-04-25 16:36:57 | 108 | 115 | 6373 | 41 | 6 | DESCEND |
| 2026-04-25 16:37:57 | 107 | 115 | 6373 | 41 | 6 | DESCEND |
| 2026-04-25 16:38:57 | 108 | 115 | 6362 | 42 | 6 | DESCEND |
| 2026-04-25 16:39:57 | 109 | 116 | 6365 | 42 | 5 | DESCEND |
| 2026-04-25 16:40:58 | 107 | 115 | 6348 | 43 | 6 | DESCEND |
| 2026-04-25 16:41:58 | 107 | 115 | 6358 | 43 | 5 | DESCEND |
| 2026-04-25 16:42:58 | 108 | 115 | 6361 | 44 | 5 | DESCEND |
| 2026-04-25 16:43:58 | 107 | 115 | 6385 | 44 | 5 | DESCEND |
| 2026-04-25 16:44:59 | 107 | 115 | 6427 | 45 | 5 | DESCEND |
| 2026-04-25 16:45:59 | 107 | 116 | 6432 | 45 | 5 | DESCEND |
| 2026-04-25 16:46:59 | 107 | 116 | 6439 | 46 | 5 | DESCEND |
| 2026-04-25 16:47:59 | 110 | 118 | 6013 | 46 | 6 | DESCEND |
| 2026-04-25 16:48:59 | 113 | 120 | 5321 | 46 | 7 | DESCEND |
| 2026-04-25 16:50:00 | 117 | 123 | 4584 | 47 | 9 | DESCEND |
| 2026-04-25 16:51:00 | 118 | 121 | 3572 | 47 | 10 | DESCEND |
| 2026-04-25 16:52:01 | 110 | 112 | 2718 | 47 | 12 | DESCEND |
| 2026-04-25 16:53:01 | 84 | 85 | 2307 | 47 | 13 | DESCEND |
| 2026-04-25 16:54:01 | 86 | 86 | 2397 | 48 | 13 | DESCEND |
| 2026-04-25 16:55:01 | 102 | 104 | 2899 | 48 | 12 | CLIMBING |
| 2026-04-25 16:56:02 | 99 | 108 | 3475 | 49 | 11 | CLIMBING |
| 2026-04-25 16:57:02 | 107 | 115 | 4013 | 49 | 10 | CLIMBING |
| 2026-04-25 16:58:02 | 123 | 132 | 3704 | 50 | 10 | CRUISE |
| 2026-04-25 16:59:02 | 117 | 125 | 3521 | 50 | 10 | CRUISE |
| 2026-04-25 17:00:02 | 118 | 126 | 3466 | 51 | 10 | CRUISE |
| 2026-04-25 17:01:03 | 117 | 126 | 3521 | 51 | 10 | CRUISE |
| 2026-04-25 17:02:03 | 118 | 126 | 3492 | 52 | 10 | CRUISE |
| 2026-04-25 17:03:03 | 118 | 125 | 3379 | 53 | 10 | CRUISE |
| 2026-04-25 17:04:03 | 118 | 125 | 3336 | 53 | 10 | CRUISE |
| 2026-04-25 17:05:03 | 116 | 123 | 3347 | 54 | 10 | CRUISE |
| 2026-04-25 17:06:04 | 117 | 125 | 3348 | 54 | 10 | CRUISE |
| 2026-04-25 17:07:04 | 119 | 126 | 3135 | 55 | 11 | CRUISE |
| 2026-04-25 17:08:04 | 122 | 129 | 2831 | 55 | 11 | CRUISE |
| 2026-04-25 17:09:04 | 121 | 127 | 2544 | 56 | 12 | CRUISE |
| 2026-04-25 17:10:04 | 116 | 122 | 2472 | 56 | 12 | LANDING |
| 2026-04-25 17:11:04 | 106 | 111 | 2494 | 57 | 12 | LANDING |
| 2026-04-25 17:12:05 | 89 | 93 | 2446 | 57 | 12 | LANDING |
| 2026-04-25 17:13:05 | 81 | 90 | 2381 | 57 | 13 | CLIMBING |
| 2026-04-25 17:14:05 | 71 | 72 | 2311 | 58 | 13 | LANDING |
| 2026-04-25 17:15:05 | 61 | 60 | 1574 | 58 | 15 | LANDING |
| 2026-04-25 17:16:05 | 10 | 10 | 1557 | 58 | 15 | LANDING |
| 2026-04-25 17:17:06 | 0 | 0 | 1559 | 58 | 14 | AT THE GATE |